Big Bear Station Historical Data
Daily Summary for October 31, 2019 Units:  Both    English   Metric
Next Day »
Daily Weekly Monthly Yearly Custom
  High: Low: Average:
Temperature: 57.6 °F /  14.2 °C 20.1 °F /  -6.6 °C 34.8 °F /  1.6 °C
Dew Point: 16.8 °F /  -8.4 °C -11.4 °F /  -24.1 °C 6.8 °F /  -14 °C
Humidity: 71% 13% 35%
Wind Speed: 3.7mph /  6km/h - 0.4mph /  0.6km/h
Wind Gust: -999mph /  -1607.7km/h - -
Wind- - WNW
Pressure: 23.64 in /  800.5 hPa 23.58 in /  798.4 hPa -
Precipitation: 0 in /  0 mm    
Historical Graphs
 
 
Tabular Data for October 31, 2019
Time Temperature Dew Point Pressure Wind Wind Speed Wind Gust Humidity Rainfall Rate (Hourly)
00:02 26.4 °F /  -3.1 °C -2.3 °F /  -19.1 °C 23.63in /  800.1hPa Calm   -999mph /  -1607.7km/h 28% 0.00in /  0mm
00:18 26.4 °F /  -3.1 °C -0.9 °F /  -18.3 °C 23.63in /  800.1hPa Calm   -999mph /  -1607.7km/h 30% 0.00in /  0mm
00:33 26.1 °F /  -3.3 °C -1.9 °F /  -18.8 °C 23.63in /  800.1hPa Calm   -999mph /  -1607.7km/h 29% 0.00in /  0mm
00:48 26.2 °F /  -3.2 °C 0.3 °F /  -17.6 °C 23.63in /  800.1hPa Calm   -999mph /  -1607.7km/h 32% 0.00in /  0mm
01:03 25.9 °F /  -3.4 °C -3.5 °F /  -19.7 °C 23.63in /  800.1hPa Calm   -999mph /  -1607.7km/h 27% 0.00in /  0mm
01:18 25.5 °F /  -3.6 °C -3.9 °F /  -19.9 °C 23.63in /  800.1hPa Calm   -999mph /  -1607.7km/h 27% 0.00in /  0mm
01:34 25 °F /  -3.9 °C -5.9 °F /  -21.1 °C 23.63in /  800.1hPa Calm   -999mph /  -1607.7km/h 25% 0.00in /  0mm
01:49 24.8 °F /  -4 °C -4.5 °F /  -20.3 °C 23.63in /  800.1hPa Calm   -999mph /  -1607.7km/h 27% 0.00in /  0mm
02:04 24.6 °F /  -4.1 °C -6.3 °F /  -21.3 °C 23.63in /  800.1hPa Calm   -999mph /  -1607.7km/h 25% 0.00in /  0mm
02:19 23.9 °F /  -4.5 °C -11.4 °F /  -24.1 °C 23.63in /  800.1hPa Calm   -999mph /  -1607.7km/h 20% 0.00in /  0mm
02:34 23.9 °F /  -4.5 °C -6.9 °F /  -21.6 °C 23.63in /  800.1hPa Calm   -999mph /  -1607.7km/h 25% 0.00in /  0mm
02:50 23.7 °F /  -4.6 °C 1.8 °F /  -16.8 °C 23.63in /  800.1hPa Calm   -999mph /  -1607.7km/h 38% 0.00in /  0mm
03:05 23.9 °F /  -4.5 °C 7 °F /  -13.9 °C 23.63in /  800.1hPa Calm   -999mph /  -1607.7km/h 48% 0.00in /  0mm
03:20 23.7 °F /  -4.6 °C 8.6 °F /  -13 °C 23.62in /  799.8hPa Calm   -999mph /  -1607.7km/h 52% 0.00in /  0mm
03:35 23.2 °F /  -4.9 °C 9 °F /  -12.8 °C 23.62in /  799.8hPa Calm   -999mph /  -1607.7km/h 54% 0.00in /  0mm
03:50 22.8 °F /  -5.1 °C 6.9 °F /  -13.9 °C 23.62in /  799.8hPa Calm   -999mph /  -1607.7km/h 50% 0.00in /  0mm
04:06 22.6 °F /  -5.2 °C 6.3 °F /  -14.3 °C 23.62in /  799.8hPa Calm   -999mph /  -1607.7km/h 49% 0.00in /  0mm
04:21 22.5 °F /  -5.3 °C 3.8 °F /  -15.7 °C 23.62in /  799.8hPa Calm   -999mph /  -1607.7km/h 44% 0.00in /  0mm
04:36 22.3 °F /  -5.4 °C 6.5 °F /  -14.2 °C 23.62in /  799.8hPa Calm   -999mph /  -1607.7km/h 50% 0.00in /  0mm
04:51 21.9 °F /  -5.6 °C 9 °F /  -12.8 °C 23.62in /  799.8hPa Calm   -999mph /  -1607.7km/h 57% 0.00in /  0mm
05:07 21.6 °F /  -5.8 °C 9.8 °F /  -12.3 °C 23.62in /  799.8hPa Calm   -999mph /  -1607.7km/h 60% 0.00in /  0mm
05:22 21.6 °F /  -5.8 °C 10.6 °F /  -11.9 °C 23.62in /  799.8hPa Calm   -999mph /  -1607.7km/h 62% 0.00in /  0mm
05:38 21.2 °F /  -6 °C 10.9 °F /  -11.7 °C 23.62in /  799.8hPa Calm   -999mph /  -1607.7km/h 64% 0.00in /  0mm
05:53 21 °F /  -6.1 °C 10.7 °F /  -11.8 °C 23.62in /  799.8hPa Calm   -999mph /  -1607.7km/h 64% 0.00in /  0mm
06:08 21.2 °F /  -6 °C 11.9 °F /  -11.2 °C 23.62in /  799.8hPa Calm   -999mph /  -1607.7km/h 67% 0.00in /  0mm
06:23 21 °F /  -6.1 °C 11.8 °F /  -11.2 °C 23.62in /  799.8hPa Calm   -999mph /  -1607.7km/h 67% 0.00in /  0mm
06:38 20.5 °F /  -6.4 °C 11.3 °F /  -11.5 °C 23.63in /  800.1hPa Calm   -999mph /  -1607.7km/h 67% 0.00in /  0mm
06:54 20.5 °F /  -6.4 °C 11.3 °F /  -11.5 °C 23.63in /  800.1hPa Calm   -999mph /  -1607.7km/h 67% 0.00in /  0mm
07:09 20.1 °F /  -6.6 °C 11.6 °F /  -11.3 °C 23.63in /  800.1hPa Calm   -999mph /  -1607.7km/h 69% 0.00in /  0mm
07:24 20.1 °F /  -6.6 °C 11.9 °F /  -11.2 °C 23.63in /  800.1hPa Calm   -999mph /  -1607.7km/h 70% 0.00in /  0mm
07:39 20.3 °F /  -6.5 °C 12.4 °F /  -10.9 °C 23.63in /  800.1hPa Calm   -999mph /  -1607.7km/h 71% 0.00in /  0mm
07:54 20.5 °F /  -6.4 °C 12.6 °F /  -10.8 °C 23.64in /  800.5hPa Calm   -999mph /  -1607.7km/h 71% 0.00in /  0mm
08:10 20.8 °F /  -6.2 °C 12.9 °F /  -10.6 °C 23.64in /  800.5hPa Calm   -999mph /  -1607.7km/h 71% 0.00in /  0mm
08:25 21.2 °F /  -6 °C 12.9 °F /  -10.6 °C 23.64in /  800.5hPa Calm   -999mph /  -1607.7km/h 70% 0.00in /  0mm
08:40 22.3 °F /  -5.4 °C 12.7 °F /  -10.7 °C 23.64in /  800.5hPa Calm   -999mph /  -1607.7km/h 66% 0.00in /  0mm
08:55 23 °F /  -5 °C 11.2 °F /  -11.6 °C 23.64in /  800.5hPa Calm   -999mph /  -1607.7km/h 60% 0.00in /  0mm
09:11 25 °F /  -3.9 °C 9.4 °F /  -12.6 °C 23.64in /  800.5hPa Calm   -999mph /  -1607.7km/h 51% 0.00in /  0mm
09:26 25.7 °F /  -3.5 °C 3 °F /  -16.1 °C 23.64in /  800.5hPa Calm   -999mph /  -1607.7km/h 37% 0.00in /  0mm
09:41 27.7 °F /  -2.4 °C 4.8 °F /  -15.1 °C 23.64in /  800.5hPa Calm   -999mph /  -1607.7km/h 37% 0.00in /  0mm
09:56 30.6 °F /  -0.8 °C 6.8 °F /  -14 °C 23.64in /  800.5hPa Calm   -999mph /  -1607.7km/h 36% 0.00in /  0mm
10:11 34 °F /  1.1 °C 16.8 °F /  -8.4 °C 23.64in /  800.5hPa Calm   -999mph /  -1607.7km/h 49% 0.00in /  0mm
10:27 36.3 °F /  2.4 °C 5.5 °F /  -14.7 °C 23.64in /  800.5hPa Calm   -999mph /  -1607.7km/h 27% 0.00in /  0mm
10:42 41.4 °F /  5.2 °C 7.3 °F /  -13.7 °C 23.63in /  800.1hPa Calm   -999mph /  -1607.7km/h 24% 0.00in /  0mm
10:57 43.9 °F /  6.6 °C 11.2 °F /  -11.6 °C 23.63in /  800.1hPa Calm   -999mph /  -1607.7km/h 26% 0.00in /  0mm
11:12 46 °F /  7.8 °C 14.7 °F /  -9.6 °C 23.63in /  800.1hPa Calm   -999mph /  -1607.7km/h 28% 0.00in /  0mm
11:27 47.5 °F /  8.6 °C 10.5 °F /  -11.9 °C 23.63in /  800.1hPa Calm   -999mph /  -1607.7km/h 22% 0.00in /  0mm
11:43 50.7 °F /  10.4 °C 3.2 °F /  -16 °C 23.62in /  799.8hPa Calm   -999mph /  -1607.7km/h 14% 0.00in /  0mm
11:58 53.2 °F /  11.8 °C 13.1 °F /  -10.5 °C 23.61in /  799.4hPa NNW 2.7mph /  4.3km/h -999mph /  -1607.7km/h 20% 0.00in /  0mm
12:13 54.7 °F /  12.6 °C 9.3 °F /  -12.6 °C 23.61in /  799.4hPa NW 2.7mph /  4.3km/h -999mph /  -1607.7km/h 16% 0.00in /  0mm
12:29 55.4 °F /  13 °C 15 °F /  -9.4 °C 23.61in /  799.4hPa Calm   -999mph /  -1607.7km/h 20% 0.00in /  0mm
12:44 56.7 °F /  13.7 °C 6.3 °F /  -14.3 °C 23.60in /  799.1hPa Calm   -999mph /  -1607.7km/h 13% 0.00in /  0mm
12:59 57.6 °F /  14.2 °C 7.1 °F /  -13.8 °C 23.59in /  798.8hPa West 2.7mph /  4.3km/h -999mph /  -1607.7km/h 13% 0.00in /  0mm
13:14 57.4 °F /  14.1 °C 8.5 °F /  -13.1 °C 23.59in /  798.8hPa NNW 1.7mph /  2.7km/h -999mph /  -1607.7km/h 14% 0.00in /  0mm
13:29 57.2 °F /  14 °C 8.4 °F /  -13.1 °C 23.58in /  798.4hPa NNE 3.7mph /  6km/h -999mph /  -1607.7km/h 14% 0.00in /  0mm
13:45 56.3 °F /  13.5 °C 10.6 °F /  -11.9 °C 23.58in /  798.4hPa NW 2.7mph /  4.3km/h -999mph /  -1607.7km/h 16% 0.00in /  0mm
14:00 56.7 °F /  13.7 °C 8 °F /  -13.3 °C 23.58in /  798.4hPa SW 1.1mph /  1.8km/h -999mph /  -1607.7km/h 14% 0.00in /  0mm
14:15 56.3 °F /  13.5 °C 10.6 °F /  -11.9 °C 23.58in /  798.4hPa West 3.2mph /  5.1km/h -999mph /  -1607.7km/h 16% 0.00in /  0mm
14:30 55.4 °F /  13 °C 12.6 °F /  -10.8 °C 23.58in /  798.4hPa NW 3.7mph /  6km/h -999mph /  -1607.7km/h 18% 0.00in /  0mm
14:45 54.5 °F /  12.5 °C 7.7 °F /  -13.5 °C 23.58in /  798.4hPa NNW 1.7mph /  2.7km/h -999mph /  -1607.7km/h 15% 0.00in /  0mm
15:01 54.9 °F /  12.7 °C 10.9 °F /  -11.7 °C 23.58in /  798.4hPa WNW 3.7mph /  6km/h -999mph /  -1607.7km/h 17% 0.00in /  0mm
15:16 54.1 °F /  12.3 °C 8.8 °F /  -12.9 °C 23.58in /  798.4hPa NNW 2.7mph /  4.3km/h -999mph /  -1607.7km/h 16% 0.00in /  0mm
15:31 53.6 °F /  12 °C 11.1 °F /  -11.6 °C 23.58in /  798.4hPa NW 2.7mph /  4.3km/h -999mph /  -1607.7km/h 18% 0.00in /  0mm
15:46 53.6 °F /  12 °C 9.8 °F /  -12.3 °C 23.58in /  798.4hPa NW 2.7mph /  4.3km/h -999mph /  -1607.7km/h 17% 0.00in /  0mm
16:01 53.1 °F /  11.7 °C 10.7 °F /  -11.8 °C 23.58in /  798.4hPa NNW 1.7mph /  2.7km/h -999mph /  -1607.7km/h 18% 0.00in /  0mm
16:17 52.3 °F /  11.3 °C 8.7 °F /  -12.9 °C 23.58in /  798.4hPa WNW 1.1mph /  1.8km/h -999mph /  -1607.7km/h 17% 0.00in /  0mm
16:32 51.6 °F /  10.9 °C 8.2 °F /  -13.2 °C 23.58in /  798.4hPa Calm   -999mph /  -1607.7km/h 17% 0.00in /  0mm
16:47 50.7 °F /  10.4 °C 7.4 °F /  -13.7 °C 23.58in /  798.4hPa West 1.1mph /  1.8km/h -999mph /  -1607.7km/h 17% 0.00in /  0mm
17:02 49.8 °F /  9.9 °C 6.7 °F /  -14.1 °C 23.58in /  798.4hPa Calm   -999mph /  -1607.7km/h 17% 0.00in /  0mm
17:18 48.4 °F /  9.1 °C 9.1 °F /  -12.7 °C 23.58in /  798.4hPa Calm   -999mph /  -1607.7km/h 20% 0.00in /  0mm
17:33 46.8 °F /  8.2 °C 9.9 °F /  -12.3 °C 23.58in /  798.4hPa Calm   -999mph /  -1607.7km/h 22% 0.00in /  0mm
17:48 45.1 °F /  7.3 °C 7.4 °F /  -13.7 °C 23.58in /  798.4hPa Calm   -999mph /  -1607.7km/h 21% 0.00in /  0mm
18:03 43.9 °F /  6.6 °C 7.5 °F /  -13.6 °C 23.58in /  798.4hPa Calm   -999mph /  -1607.7km/h 22% 0.00in /  0mm
18:18 42.4 °F /  5.8 °C 7.2 °F /  -13.8 °C 23.58in /  798.4hPa Calm   -999mph /  -1607.7km/h 23% 0.00in /  0mm
18:34 40.8 °F /  4.9 °C 5.8 °F /  -14.6 °C 23.59in /  798.8hPa Calm   -999mph /  -1607.7km/h 23% 0.00in /  0mm
18:49 39.6 °F /  4.2 °C 4.8 °F /  -15.1 °C 23.59in /  798.8hPa Calm   -999mph /  -1607.7km/h 23% 0.00in /  0mm
19:04 38.7 °F /  3.7 °C 4 °F /  -15.6 °C 23.59in /  798.8hPa Calm   -999mph /  -1607.7km/h 23% 0.00in /  0mm
19:20 37.2 °F /  2.9 °C 3.7 °F /  -15.7 °C 23.60in /  799.1hPa Calm   -999mph /  -1607.7km/h 24% 0.00in /  0mm
19:35 36.5 °F /  2.5 °C 4.8 °F /  -15.1 °C 23.60in /  799.1hPa Calm   -999mph /  -1607.7km/h 26% 0.00in /  0mm
19:50 34.9 °F /  1.6 °C 3.4 °F /  -15.9 °C 23.60in /  799.1hPa Calm   -999mph /  -1607.7km/h 26% 0.00in /  0mm
20:05 34.2 °F /  1.2 °C -0.7 °F /  -18.2 °C 23.61in /  799.4hPa Calm   -999mph /  -1607.7km/h 22% 0.00in /  0mm
20:21 33.4 °F /  0.8 °C -3.4 °F /  -19.7 °C 23.61in /  799.4hPa Calm   -999mph /  -1607.7km/h 20% 0.00in /  0mm
20:36 32.7 °F /  0.4 °C -1.1 °F /  -18.4 °C 23.61in /  799.4hPa Calm   -999mph /  -1607.7km/h 23% 0.00in /  0mm
20:51 32 °F /  0 °C 0.1 °F /  -17.7 °C 23.61in /  799.4hPa Calm   -999mph /  -1607.7km/h 25% 0.00in /  0mm
21:06 30.7 °F /  -0.7 °C -1 °F /  -18.3 °C 23.61in /  799.4hPa Calm   -999mph /  -1607.7km/h 25% 0.00in /  0mm
21:21 30 °F /  -1.1 °C 1.5 °F /  -16.9 °C 23.61in /  799.4hPa Calm   -999mph /  -1607.7km/h 29% 0.00in /  0mm
21:37 29.7 °F /  -1.3 °C 4.7 °F /  -15.2 °C 23.61in /  799.4hPa Calm   -999mph /  -1607.7km/h 34% 0.00in /  0mm
21:52 29.1 °F /  -1.6 °C 4.8 °F /  -15.1 °C 23.61in /  799.4hPa Calm   -999mph /  -1607.7km/h 35% 0.00in /  0mm
22:07 29.1 °F /  -1.6 °C 8.8 °F /  -12.9 °C 23.61in /  799.4hPa Calm   -999mph /  -1607.7km/h 42% 0.00in /  0mm
22:22 28.2 °F /  -2.1 °C 9.6 °F /  -12.4 °C 23.61in /  799.4hPa Calm   -999mph /  -1607.7km/h 45% 0.00in /  0mm
22:37 28.2 °F /  -2.1 °C 11.5 °F /  -11.4 °C 23.62in /  799.8hPa Calm   -999mph /  -1607.7km/h 49% 0.00in /  0mm
22:53 27.9 °F /  -2.3 °C 10.7 °F /  -11.8 °C 23.61in /  799.4hPa Calm   -999mph /  -1607.7km/h 48% 0.00in /  0mm
23:08 27.7 °F /  -2.4 °C 11.5 °F /  -11.4 °C 23.61in /  799.4hPa Calm   -999mph /  -1607.7km/h 50% 0.00in /  0mm
23:23 27.3 °F /  -2.6 °C 11.5 °F /  -11.4 °C 23.61in /  799.4hPa Calm   -999mph /  -1607.7km/h 51% 0.00in /  0mm
23:38 26.6 °F /  -3 °C 11.3 °F /  -11.5 °C 23.61in /  799.4hPa Calm   -999mph /  -1607.7km/h 52% 0.00in /  0mm
23:54 26.8 °F /  -2.9 °C 7.8 °F /  -13.4 °C 23.61in /  799.4hPa Calm   -999mph /  -1607.7km/h 44% 0.00in /  0mm
Big Bear CA Weather